sensor_id;sensor_type;location;lat;lon;timestamp;temperature;humidity
21267;DHT22;10791;53.108;18.326;2024-02-14T00:01:28;-0.50;99.90
21267;DHT22;10791;53.108;18.326;2024-02-14T00:06:35;-0.50;99.90
21267;DHT22;10791;53.108;18.326;2024-02-14T00:11:41;-0.50;99.90
21267;DHT22;10791;53.108;18.326;2024-02-14T00:16:44;-0.50;99.90
21267;DHT22;10791;53.108;18.326;2024-02-14T00:22:15;-0.60;99.90
21267;DHT22;10791;53.108;18.326;2024-02-14T00:34:09;-0.70;99.90
21267;DHT22;10791;53.108;18.326;2024-02-14T00:39:13;-0.70;99.90
21267;DHT22;10791;53.108;18.326;2024-02-14T00:44:16;-0.70;99.90
21267;DHT22;10791;53.108;18.326;2024-02-14T00:49:24;-0.70;99.90
21267;DHT22;10791;53.108;18.326;2024-02-14T00:54:37;-0.70;99.90
21267;DHT22;10791;53.108;18.326;2024-02-14T00:59:54;-0.70;99.90
21267;DHT22;10791;53.108;18.326;2024-02-14T01:11:33;-0.60;99.90
21267;DHT22;10791;53.108;18.326;2024-02-14T01:17:03;-0.70;99.90
21267;DHT22;10791;53.108;18.326;2024-02-14T01:22:27;-0.60;99.90
21267;DHT22;10791;53.108;18.326;2024-02-14T01:27:31;-0.70;99.90
21267;DHT22;10791;53.108;18.326;2024-02-14T01:32:34;-0.70;99.90
21267;DHT22;10791;53.108;18.326;2024-02-14T01:37:38;-0.70;99.90
21267;DHT22;10791;53.108;18.326;2024-02-14T01:42:41;-0.60;99.90
21267;DHT22;10791;53.108;18.326;2024-02-14T01:47:45;-0.60;99.90
21267;DHT22;10791;53.108;18.326;2024-02-14T01:52:48;-0.60;99.90
21267;DHT22;10791;53.108;18.326;2024-02-14T01:57:52;-0.60;99.90
21267;DHT22;10791;53.108;18.326;2024-02-14T02:02:56;-0.60;99.90
21267;DHT22;10791;53.108;18.326;2024-02-14T02:08:00;-0.60;99.90
21267;DHT22;10791;53.108;18.326;2024-02-14T02:13:04;-0.50;99.90
21267;DHT22;10791;53.108;18.326;2024-02-14T02:18:16;-0.60;99.90
21267;DHT22;10791;53.108;18.326;2024-02-14T02:24:06;-0.50;99.90
21267;DHT22;10791;53.108;18.326;2024-02-14T02:30:16;-0.50;99.90
21267;DHT22;10791;53.108;18.326;2024-02-14T02:49:11;-0.60;99.90
21267;DHT22;10791;53.108;18.326;2024-02-14T02:54:17;-0.70;99.90
21267;DHT22;10791;53.108;18.326;2024-02-14T02:59:20;-0.80;99.90
21267;DHT22;10791;53.108;18.326;2024-02-14T03:04:25;-0.80;99.90
21267;DHT22;10791;53.108;18.326;2024-02-14T03:09:48;-0.80;99.90
21267;DHT22;10791;53.108;18.326;2024-02-14T03:27:09;-0.90;99.90
21267;DHT22;10791;53.108;18.326;2024-02-14T03:32:12;-0.90;99.90
21267;DHT22;10791;53.108;18.326;2024-02-14T03:37:16;-0.90;99.90
21267;DHT22;10791;53.108;18.326;2024-02-14T03:42:20;-1.00;99.90
21267;DHT22;10791;53.108;18.326;2024-02-14T03:47:23;-0.90;99.90
21267;DHT22;10791;53.108;18.326;2024-02-14T03:52:27;-1.00;99.90
21267;DHT22;10791;53.108;18.326;2024-02-14T03:57:30;-1.00;99.90
21267;DHT22;10791;53.108;18.326;2024-02-14T04:02:33;-1.00;99.90
21267;DHT22;10791;53.108;18.326;2024-02-14T04:07:40;-1.10;99.90
21267;DHT22;10791;53.108;18.326;2024-02-14T04:12:47;-1.10;99.90
21267;DHT22;10791;53.108;18.326;2024-02-14T04:17:50;-1.20;99.90
21267;DHT22;10791;53.108;18.326;2024-02-14T04:22:53;-1.20;99.90
21267;DHT22;10791;53.108;18.326;2024-02-14T04:27:56;-1.20;99.90
21267;DHT22;10791;53.108;18.326;2024-02-14T04:32:59;-1.20;99.90
21267;DHT22;10791;53.108;18.326;2024-02-14T04:38:03;-1.20;99.90
21267;DHT22;10791;53.108;18.326;2024-02-14T04:43:05;-1.20;99.90
21267;DHT22;10791;53.108;18.326;2024-02-14T04:48:08;-1.10;99.90
21267;DHT22;10791;53.108;18.326;2024-02-14T04:53:11;-1.20;99.90
21267;DHT22;10791;53.108;18.326;2024-02-14T04:58:14;-1.30;99.90
21267;DHT22;10791;53.108;18.326;2024-02-14T05:03:17;-1.30;99.90
21267;DHT22;10791;53.108;18.326;2024-02-14T05:08:21;-1.20;99.90
21267;DHT22;10791;53.108;18.326;2024-02-14T05:13:24;-1.30;99.90
21267;DHT22;10791;53.108;18.326;2024-02-14T05:18:28;-1.40;99.90
21267;DHT22;10791;53.108;18.326;2024-02-14T05:23:31;-1.30;99.90
21267;DHT22;10791;53.108;18.326;2024-02-14T05:28:34;-1.40;99.90
21267;DHT22;10791;53.108;18.326;2024-02-14T05:33:37;-1.30;99.90
21267;DHT22;10791;53.108;18.326;2024-02-14T05:38:40;-1.50;99.90
21267;DHT22;10791;53.108;18.326;2024-02-14T05:43:43;-1.50;99.90
21267;DHT22;10791;53.108;18.326;2024-02-14T05:48:46;-1.50;99.90
21267;DHT22;10791;53.108;18.326;2024-02-14T05:53:51;-1.50;99.90
21267;DHT22;10791;53.108;18.326;2024-02-14T05:58:54;-1.60;99.90
21267;DHT22;10791;53.108;18.326;2024-02-14T06:03:57;-1.60;99.90
21267;DHT22;10791;53.108;18.326;2024-02-14T06:09:00;-1.60;99.90
21267;DHT22;10791;53.108;18.326;2024-02-14T06:14:03;-1.60;99.90
21267;DHT22;10791;53.108;18.326;2024-02-14T06:19:06;-1.60;99.90
21267;DHT22;10791;53.108;18.326;2024-02-14T06:24:10;-1.60;99.90
21267;DHT22;10791;53.108;18.326;2024-02-14T06:29:16;-1.60;99.90
21267;DHT22;10791;53.108;18.326;2024-02-14T06:34:19;-1.60;99.90
21267;DHT22;10791;53.108;18.326;2024-02-14T06:39:23;-1.60;99.90
21267;DHT22;10791;53.108;18.326;2024-02-14T06:44:26;-1.50;99.90
21267;DHT22;10791;53.108;18.326;2024-02-14T06:49:29;-1.50;99.90
21267;DHT22;10791;53.108;18.326;2024-02-14T06:54:32;-1.40;99.90
21267;DHT22;10791;53.108;18.326;2024-02-14T06:59:36;-1.40;99.90
21267;DHT22;10791;53.108;18.326;2024-02-14T07:04:41;-1.30;99.90
21267;DHT22;10791;53.108;18.326;2024-02-14T07:09:44;-1.20;99.90
21267;DHT22;10791;53.108;18.326;2024-02-14T07:14:48;-1.10;99.90
21267;DHT22;10791;53.108;18.326;2024-02-14T07:19:51;-1.00;99.90
21267;DHT22;10791;53.108;18.326;2024-02-14T07:24:54;-1.00;99.90
21267;DHT22;10791;53.108;18.326;2024-02-14T07:29:58;-0.80;99.90
21267;DHT22;10791;53.108;18.326;2024-02-14T07:35:02;-0.70;99.90
21267;DHT22;10791;53.108;18.326;2024-02-14T07:40:06;-0.60;99.90
21267;DHT22;10791;53.108;18.326;2024-02-14T07:45:10;-0.50;99.90
21267;DHT22;10791;53.108;18.326;2024-02-14T07:50:15;-0.30;99.90
21267;DHT22;10791;53.108;18.326;2024-02-14T07:55:18;-0.10;99.90
21267;DHT22;10791;53.108;18.326;2024-02-14T08:00:23;0.10;99.90
21267;DHT22;10791;53.108;18.326;2024-02-14T08:05:27;0.20;99.90
21267;DHT22;10791;53.108;18.326;2024-02-14T08:10:30;0.30;99.90
21267;DHT22;10791;53.108;18.326;2024-02-14T08:15:34;0.50;99.90
21267;DHT22;10791;53.108;18.326;2024-02-14T08:20:41;0.70;99.90
21267;DHT22;10791;53.108;18.326;2024-02-14T08:25:46;0.90;99.90
21267;DHT22;10791;53.108;18.326;2024-02-14T08:30:50;1.10;99.90
21267;DHT22;10791;53.108;18.326;2024-02-14T08:35:55;1.40;99.90
21267;DHT22;10791;53.108;18.326;2024-02-14T08:41:04;1.70;99.90
21267;DHT22;10791;53.108;18.326;2024-02-14T08:46:11;2.10;99.90
21267;DHT22;10791;53.108;18.326;2024-02-14T08:51:16;2.40;99.90
21267;DHT22;10791;53.108;18.326;2024-02-14T08:56:20;2.70;99.90
21267;DHT22;10791;53.108;18.326;2024-02-14T09:01:25;3.00;99.90
21267;DHT22;10791;53.108;18.326;2024-02-14T09:06:30;3.20;99.90
21267;DHT22;10791;53.108;18.326;2024-02-14T09:11:37;3.40;99.90
21267;DHT22;10791;53.108;18.326;2024-02-14T09:16:41;3.70;99.90
21267;DHT22;10791;53.108;18.326;2024-02-14T09:21:45;4.00;99.90
21267;DHT22;10791;53.108;18.326;2024-02-14T09:26:48;4.30;99.90
21267;DHT22;10791;53.108;18.326;2024-02-14T09:31:52;4.30;99.90
21267;DHT22;10791;53.108;18.326;2024-02-14T09:36:56;4.60;99.90
21267;DHT22;10791;53.108;18.326;2024-02-14T09:42:01;4.70;99.90
21267;DHT22;10791;53.108;18.326;2024-02-14T09:47:10;5.00;99.90
21267;DHT22;10791;53.108;18.326;2024-02-14T09:52:14;5.30;99.90
21267;DHT22;10791;53.108;18.326;2024-02-14T09:57:19;5.60;99.90
21267;DHT22;10791;53.108;18.326;2024-02-14T10:02:22;5.90;99.90
21267;DHT22;10791;53.108;18.326;2024-02-14T10:07:26;6.20;99.90
21267;DHT22;10791;53.108;18.326;2024-02-14T10:12:29;6.40;99.90
21267;DHT22;10791;53.108;18.326;2024-02-14T10:17:34;6.50;99.90
21267;DHT22;10791;53.108;18.326;2024-02-14T10:22:38;6.80;99.90
21267;DHT22;10791;53.108;18.326;2024-02-14T10:27:42;7.00;99.90
21267;DHT22;10791;53.108;18.326;2024-02-14T10:32:45;7.30;99.90
21267;DHT22;10791;53.108;18.326;2024-02-14T10:37:52;7.50;99.90
21267;DHT22;10791;53.108;18.326;2024-02-14T10:42:56;7.80;99.90
21267;DHT22;10791;53.108;18.326;2024-02-14T10:48:01;8.10;99.90
21267;DHT22;10791;53.108;18.326;2024-02-14T10:53:12;8.20;99.90
21267;DHT22;10791;53.108;18.326;2024-02-14T10:58:19;8.50;99.90
21267;DHT22;10791;53.108;18.326;2024-02-14T11:03:22;8.50;99.90
21267;DHT22;10791;53.108;18.326;2024-02-14T11:08:29;8.40;99.90
21267;DHT22;10791;53.108;18.326;2024-02-14T11:13:35;8.30;99.90
21267;DHT22;10791;53.108;18.326;2024-02-14T11:18:38;8.30;99.90
21267;DHT22;10791;53.108;18.326;2024-02-14T11:23:53;8.30;99.90
21267;DHT22;10791;53.108;18.326;2024-02-14T11:29:00;8.40;99.90
21267;DHT22;10791;53.108;18.326;2024-02-14T11:34:07;8.30;99.90
21267;DHT22;10791;53.108;18.326;2024-02-14T11:39:18;8.40;99.90
21267;DHT22;10791;53.108;18.326;2024-02-14T11:44:21;8.50;99.90
21267;DHT22;10791;53.108;18.326;2024-02-14T11:49:28;8.50;99.90
21267;DHT22;10791;53.108;18.326;2024-02-14T11:54:32;8.60;99.90
21267;DHT22;10791;53.108;18.326;2024-02-14T11:59:36;8.50;99.90
21267;DHT22;10791;53.108;18.326;2024-02-14T12:04:39;8.60;99.90
21267;DHT22;10791;53.108;18.326;2024-02-14T12:09:43;8.70;99.90
21267;DHT22;10791;53.108;18.326;2024-02-14T12:14:46;8.80;99.90
21267;DHT22;10791;53.108;18.326;2024-02-14T12:19:52;8.70;99.90
21267;DHT22;10791;53.108;18.326;2024-02-14T12:24:56;8.70;99.90
21267;DHT22;10791;53.108;18.326;2024-02-14T12:30:05;8.60;99.90
21267;DHT22;10791;53.108;18.326;2024-02-14T12:35:11;8.70;99.90
21267;DHT22;10791;53.108;18.326;2024-02-14T12:40:14;8.60;99.90
21267;DHT22;10791;53.108;18.326;2024-02-14T12:45:17;8.60;99.90
21267;DHT22;10791;53.108;18.326;2024-02-14T12:50:22;8.60;99.90
21267;DHT22;10791;53.108;18.326;2024-02-14T12:55:26;8.80;99.90
21267;DHT22;10791;53.108;18.326;2024-02-14T13:00:31;8.90;99.90
21267;DHT22;10791;53.108;18.326;2024-02-14T13:05:35;8.90;99.90
21267;DHT22;10791;53.108;18.326;2024-02-14T13:10:39;8.90;99.90
21267;DHT22;10791;53.108;18.326;2024-02-14T13:15:42;8.90;99.90
21267;DHT22;10791;53.108;18.326;2024-02-14T13:20:48;8.90;99.90
21267;DHT22;10791;53.108;18.326;2024-02-14T13:25:53;8.80;99.90
21267;DHT22;10791;53.108;18.326;2024-02-14T13:30:57;8.80;99.90
21267;DHT22;10791;53.108;18.326;2024-02-14T13:36:00;8.70;99.90
21267;DHT22;10791;53.108;18.326;2024-02-14T13:41:03;8.60;99.90
21267;DHT22;10791;53.108;18.326;2024-02-14T13:46:07;8.50;99.90
21267;DHT22;10791;53.108;18.326;2024-02-14T13:51:12;8.50;99.90
21267;DHT22;10791;53.108;18.326;2024-02-14T13:56:15;8.50;99.90
21267;DHT22;10791;53.108;18.326;2024-02-14T14:01:24;8.50;99.90
21267;DHT22;10791;53.108;18.326;2024-02-14T14:06:30;8.50;99.90
21267;DHT22;10791;53.108;18.326;2024-02-14T14:11:33;8.50;99.90
21267;DHT22;10791;53.108;18.326;2024-02-14T14:16:37;8.40;99.90
21267;DHT22;10791;53.108;18.326;2024-02-14T14:21:40;8.40;99.90
21267;DHT22;10791;53.108;18.326;2024-02-14T14:26:43;8.30;99.90
21267;DHT22;10791;53.108;18.326;2024-02-14T14:31:46;8.10;99.90
21267;DHT22;10791;53.108;18.326;2024-02-14T14:36:49;8.00;99.90
21267;DHT22;10791;53.108;18.326;2024-02-14T14:41:53;8.00;99.90
21267;DHT22;10791;53.108;18.326;2024-02-14T14:47:00;8.00;99.90
21267;DHT22;10791;53.108;18.326;2024-02-14T14:52:04;7.90;99.90
21267;DHT22;10791;53.108;18.326;2024-02-14T14:57:07;7.90;99.90
21267;DHT22;10791;53.108;18.326;2024-02-14T15:02:17;7.90;99.90
21267;DHT22;10791;53.108;18.326;2024-02-14T15:07:21;7.90;99.90
21267;DHT22;10791;53.108;18.326;2024-02-14T15:12:24;7.90;99.90
21267;DHT22;10791;53.108;18.326;2024-02-14T15:17:30;7.80;99.90
21267;DHT22;10791;53.108;18.326;2024-02-14T15:22:33;7.60;99.90
21267;DHT22;10791;53.108;18.326;2024-02-14T15:27:37;7.60;99.90
21267;DHT22;10791;53.108;18.326;2024-02-14T15:32:47;7.50;99.90
21267;DHT22;10791;53.108;18.326;2024-02-14T15:38:09;7.40;99.90
21267;DHT22;10791;53.108;18.326;2024-02-14T15:43:12;7.30;99.90
21267;DHT22;10791;53.108;18.326;2024-02-14T15:48:16;7.30;99.90
21267;DHT22;10791;53.108;18.326;2024-02-14T15:53:19;7.30;99.90
21267;DHT22;10791;53.108;18.326;2024-02-14T15:58:23;7.20;99.90
21267;DHT22;10791;53.108;18.326;2024-02-14T16:03:29;7.10;99.90
21267;DHT22;10791;53.108;18.326;2024-02-14T16:08:33;7.00;99.90
21267;DHT22;10791;53.108;18.326;2024-02-14T16:13:36;6.90;99.90
21267;DHT22;10791;53.108;18.326;2024-02-14T16:18:39;6.80;99.90
21267;DHT22;10791;53.108;18.326;2024-02-14T16:23:43;6.80;99.90
21267;DHT22;10791;53.108;18.326;2024-02-14T16:28:47;6.70;99.90
21267;DHT22;10791;53.108;18.326;2024-02-14T16:33:51;6.70;99.90
21267;DHT22;10791;53.108;18.326;2024-02-14T16:38:54;6.50;99.90
21267;DHT22;10791;53.108;18.326;2024-02-14T16:43:57;6.50;99.90
21267;DHT22;10791;53.108;18.326;2024-02-14T16:49:01;6.30;99.90
21267;DHT22;10791;53.108;18.326;2024-02-14T16:54:06;6.20;99.90
21267;DHT22;10791;53.108;18.326;2024-02-14T16:59:10;6.20;99.90
21267;DHT22;10791;53.108;18.326;2024-02-14T17:04:13;6.10;99.90
21267;DHT22;10791;53.108;18.326;2024-02-14T17:09:16;6.00;99.90
21267;DHT22;10791;53.108;18.326;2024-02-14T17:14:22;6.00;99.90
21267;DHT22;10791;53.108;18.326;2024-02-14T17:19:29;6.00;99.90
21267;DHT22;10791;53.108;18.326;2024-02-14T17:24:32;5.90;99.90
21267;DHT22;10791;53.108;18.326;2024-02-14T17:29:36;5.90;99.90
21267;DHT22;10791;53.108;18.326;2024-02-14T17:34:39;6.00;99.90
21267;DHT22;10791;53.108;18.326;2024-02-14T17:39:44;6.00;99.90
21267;DHT22;10791;53.108;18.326;2024-02-14T17:44:48;5.90;99.90
21267;DHT22;10791;53.108;18.326;2024-02-14T17:49:53;6.00;99.90
21267;DHT22;10791;53.108;18.326;2024-02-14T17:54:59;5.90;99.90
21267;DHT22;10791;53.108;18.326;2024-02-14T18:00:05;5.90;99.90
21267;DHT22;10791;53.108;18.326;2024-02-14T18:05:10;5.90;99.90
21267;DHT22;10791;53.108;18.326;2024-02-14T18:10:13;5.90;99.90
21267;DHT22;10791;53.108;18.326;2024-02-14T18:15:17;6.00;99.90
21267;DHT22;10791;53.108;18.326;2024-02-14T18:20:21;6.00;99.90
21267;DHT22;10791;53.108;18.326;2024-02-14T18:25:24;6.00;99.90
21267;DHT22;10791;53.108;18.326;2024-02-14T18:30:28;6.00;99.90
21267;DHT22;10791;53.108;18.326;2024-02-14T18:35:37;6.00;99.90
21267;DHT22;10791;53.108;18.326;2024-02-14T18:40:40;6.00;99.90
21267;DHT22;10791;53.108;18.326;2024-02-14T18:45:44;6.00;99.90
21267;DHT22;10791;53.108;18.326;2024-02-14T18:50:48;6.10;99.90
21267;DHT22;10791;53.108;18.326;2024-02-14T18:55:51;6.10;99.90
21267;DHT22;10791;53.108;18.326;2024-02-14T19:00:55;6.10;99.90
21267;DHT22;10791;53.108;18.326;2024-02-14T19:05:58;6.10;99.90
21267;DHT22;10791;53.108;18.326;2024-02-14T19:11:02;6.10;99.90
21267;DHT22;10791;53.108;18.326;2024-02-14T19:16:07;6.10;99.90
21267;DHT22;10791;53.108;18.326;2024-02-14T19:21:26;6.10;99.90
21267;DHT22;10791;53.108;18.326;2024-02-14T19:26:30;6.10;99.90
21267;DHT22;10791;53.108;18.326;2024-02-14T19:31:34;6.00;99.90
21267;DHT22;10791;53.108;18.326;2024-02-14T19:36:39;6.00;99.90
21267;DHT22;10791;53.108;18.326;2024-02-14T19:41:43;6.00;99.90
21267;DHT22;10791;53.108;18.326;2024-02-14T19:46:49;5.90;99.90
21267;DHT22;10791;53.108;18.326;2024-02-14T19:51:54;5.90;99.90
21267;DHT22;10791;53.108;18.326;2024-02-14T19:56:58;6.00;99.90
21267;DHT22;10791;53.108;18.326;2024-02-14T20:02:03;6.00;99.90
21267;DHT22;10791;53.108;18.326;2024-02-14T20:07:07;6.00;99.90
21267;DHT22;10791;53.108;18.326;2024-02-14T20:12:12;6.00;99.90
21267;DHT22;10791;53.108;18.326;2024-02-14T20:17:16;6.00;99.90
21267;DHT22;10791;53.108;18.326;2024-02-14T20:22:21;6.00;99.90
21267;DHT22;10791;53.108;18.326;2024-02-14T20:27:27;6.10;99.90
21267;DHT22;10791;53.108;18.326;2024-02-14T20:32:31;6.10;99.90
21267;DHT22;10791;53.108;18.326;2024-02-14T20:37:36;6.10;99.90
21267;DHT22;10791;53.108;18.326;2024-02-14T20:42:43;6.10;99.90
21267;DHT22;10791;53.108;18.326;2024-02-14T20:47:47;6.10;99.90
21267;DHT22;10791;53.108;18.326;2024-02-14T20:52:53;6.10;99.90
21267;DHT22;10791;53.108;18.326;2024-02-14T20:57:58;6.10;99.90
21267;DHT22;10791;53.108;18.326;2024-02-14T21:03:03;6.20;99.90
21267;DHT22;10791;53.108;18.326;2024-02-14T21:08:08;6.20;99.90
21267;DHT22;10791;53.108;18.326;2024-02-14T21:13:15;6.20;99.90
21267;DHT22;10791;53.108;18.326;2024-02-14T21:18:20;6.20;99.90
21267;DHT22;10791;53.108;18.326;2024-02-14T21:23:24;6.20;99.90
21267;DHT22;10791;53.108;18.326;2024-02-14T21:28:28;6.20;99.90
21267;DHT22;10791;53.108;18.326;2024-02-14T21:33:34;6.20;99.90
21267;DHT22;10791;53.108;18.326;2024-02-14T21:38:41;6.20;99.90
21267;DHT22;10791;53.108;18.326;2024-02-14T21:43:44;6.30;99.90
21267;DHT22;10791;53.108;18.326;2024-02-14T21:48:47;6.30;99.90
21267;DHT22;10791;53.108;18.326;2024-02-14T21:53:55;6.20;99.90
21267;DHT22;10791;53.108;18.326;2024-02-14T21:59:00;6.30;99.90
21267;DHT22;10791;53.108;18.326;2024-02-14T22:04:05;6.30;99.90
21267;DHT22;10791;53.108;18.326;2024-02-14T22:09:09;6.30;99.90
21267;DHT22;10791;53.108;18.326;2024-02-14T22:14:12;6.20;99.90
21267;DHT22;10791;53.108;18.326;2024-02-14T22:19:16;6.40;99.90
21267;DHT22;10791;53.108;18.326;2024-02-14T22:24:19;6.40;99.90
21267;DHT22;10791;53.108;18.326;2024-02-14T22:29:23;6.40;99.90
21267;DHT22;10791;53.108;18.326;2024-02-14T22:34:27;6.40;99.90
21267;DHT22;10791;53.108;18.326;2024-02-14T22:39:30;6.40;99.90
21267;DHT22;10791;53.108;18.326;2024-02-14T22:44:36;6.50;99.90
21267;DHT22;10791;53.108;18.326;2024-02-14T22:49:41;6.50;99.90
21267;DHT22;10791;53.108;18.326;2024-02-14T22:54:45;6.50;99.90
21267;DHT22;10791;53.108;18.326;2024-02-14T22:59:48;6.50;99.90
21267;DHT22;10791;53.108;18.326;2024-02-14T23:04:52;6.50;99.90
21267;DHT22;10791;53.108;18.326;2024-02-14T23:09:55;6.50;99.90
21267;DHT22;10791;53.108;18.326;2024-02-14T23:14:59;6.50;99.90
21267;DHT22;10791;53.108;18.326;2024-02-14T23:20:03;6.50;99.90
21267;DHT22;10791;53.108;18.326;2024-02-14T23:25:09;6.60;99.90
21267;DHT22;10791;53.108;18.326;2024-02-14T23:30:16;6.60;99.90
21267;DHT22;10791;53.108;18.326;2024-02-14T23:35:21;6.50;99.90
21267;DHT22;10791;53.108;18.326;2024-02-14T23:40:25;6.50;99.90
21267;DHT22;10791;53.108;18.326;2024-02-14T23:45:28;6.60;99.90
21267;DHT22;10791;53.108;18.326;2024-02-14T23:50:31;6.50;99.90
21267;DHT22;10791;53.108;18.326;2024-02-14T23:55:34;6.60;99.90
